Time;durP1;ratioP1;P1;durP2;ratioP2;P2;SDS_P1;SDS_P2;PMS_P1;PMS_P2;Temp;Humidity;BMP_temperature;BMP_pressure;BME280_temperature;BME280_humidity;BME280_pressure;Samples;Min_cycle;Max_cycle;Signal;HPM_P1;HPM_P2
2021/04/04 00:02:24;;;;;;;5.87;4.17;;;9.20;49.40;;;;;;5056914;28;20173;-90
2021/04/04 00:04:50;;;;;;;5.50;5.00;;;9.20;49.30;;;;;;5055203;28;20216;-90
2021/04/04 00:07:16;;;;;;;9.23;5.40;;;9.20;46.90;;;;;;5042061;28;20249;-90
2021/04/04 00:09:42;;;;;;;6.03;5.43;;;8.60;47.40;;;;;;5025936;28;20223;-90
2021/04/04 00:12:09;;;;;;;5.17;4.67;;;8.30;48.60;;;;;;5041749;28;20174;-90
2021/04/04 00:14:35;;;;;;;6.67;5.03;;;8.30;49.30;;;;;;5042941;28;20201;-90
2021/04/04 00:17:02;;;;;;;11.27;5.43;;;8.20;49.80;;;;;;5043669;28;20640;-89
2021/04/04 00:19:28;;;;;;;5.27;4.50;;;8.20;51.60;;;;;;5042108;28;20222;-89
2021/04/04 00:21:54;;;;;;;6.20;4.47;;;8.30;52.10;;;;;;5043247;28;20183;-89
2021/04/04 00:24:19;;;;;;;6.37;4.40;;;8.30;51.70;;;;;;5042492;28;20224;-90
2021/04/04 00:26:45;;;;;;;6.10;4.93;;;8.50;51.50;;;;;;5041461;28;20177;-90
2021/04/04 00:29:12;;;;;;;5.43;4.13;;;8.50;51.30;;;;;;5025863;28;20275;-89
2021/04/04 00:31:38;;;;;;;6.17;4.53;;;8.60;49.50;;;;;;5042593;28;20671;-90
2021/04/04 00:34:05;;;;;;;7.43;4.77;;;8.40;49.90;;;;;;5042416;28;20586;-89
2021/04/04 00:36:31;;;;;;;7.40;4.87;;;8.50;50.00;;;;;;5024833;28;20259;-90
2021/04/04 00:38:57;;;;;;;6.20;4.83;;;8.50;49.40;;;;;;5042828;28;20174;-91
2021/04/04 00:41:23;;;;;;;5.50;4.50;;;8.40;49.40;;;;;;5042509;28;20573;-89
2021/04/04 00:43:48;;;;;;;5.00;4.50;;;8.20;50.50;;;;;;5042205;28;20181;-90
2021/04/04 00:46:14;;;;;;;7.43;5.17;;;7.90;51.10;;;;;;5043112;28;20205;-90
2021/04/04 00:48:40;;;;;;;7.60;4.70;;;7.70;51.70;;;;;;5038493;28;20258;-91
2021/04/04 00:51:05;;;;;;;5.97;5.37;;;7.70;52.40;;;;;;5037206;28;20204;-91
2021/04/04 01:04:18;;;;;;;6.17;5.40;;;7.80;54.30;;;;;;5016750;28;20188;-90
2021/04/04 01:06:44;;;;;;;5.83;4.73;;;7.90;53.80;;;;;;5024818;28;20177;-90
2021/04/04 01:09:10;;;;;;;5.37;4.77;;;8.00;53.40;;;;;;5038124;28;20173;-90
2021/04/04 01:12:02;;;;;;;5.97;4.70;;;8.00;53.10;;;;;;5036900;28;20184;-91
2021/04/04 01:14:35;;;;;;;7.10;5.07;;;8.10;53.20;;;;;;5034278;28;20218;-91
2021/04/04 01:17:04;;;;;;;4.93;4.47;;;8.10;53.10;;;;;;5037627;28;20173;-90
2021/04/04 01:20:04;;;;;;;6.07;4.70;;;8.10;52.80;;;;;;5034937;28;20652;-89
2021/04/04 01:22:56;;;;;;;6.87;4.93;;;8.10;53.10;;;;;;5035929;28;20685;-90
2021/04/04 01:25:45;;;;;;;6.07;4.83;;;8.10;53.20;;;;;;5037655;28;20754;-90
2021/04/04 01:28:26;;;;;;;6.97;5.40;;;8.20;53.10;;;;;;5018127;28;20181;-90
2021/04/04 01:30:53;;;;;;;5.97;5.37;;;8.10;52.90;;;;;;5018428;28;20184;-90
2021/04/04 01:33:20;;;;;;;7.20;5.87;;;7.80;53.60;;;;;;5015832;28;20182;-90
2021/04/04 01:35:48;;;;;;;7.60;5.63;;;7.50;54.90;;;;;;5024776;28;20236;-91
2021/04/04 01:38:18;;;;;;;6.97;5.43;;;7.30;55.40;;;;;;5036683;28;20188;-90
2021/04/04 01:40:47;;;;;;;6.17;5.57;;;7.50;55.90;;;;;;5037877;28;20184;-90
2021/04/04 01:43:15;;;;;;;5.67;5.00;;;7.60;55.60;;;;;;5037601;28;20513;-90
2021/04/04 01:45:42;;;;;;;6.83;6.10;;;7.70;55.40;;;;;;5037955;28;20201;-90
2021/04/04 01:48:13;;;;;;;7.33;6.00;;;7.60;54.20;;;;;;5040463;28;20217;-90
2021/04/04 01:50:40;;;;;;;7.90;5.70;;;7.60;54.80;;;;;;5041378;28;20165;-90
2021/04/04 01:53:07;;;;;;;5.83;5.23;;;7.50;55.90;;;;;;5040815;28;20212;-90
2021/04/04 01:55:35;;;;;;;10.10;5.87;;;7.50;56.00;;;;;;5039813;28;20216;-90
2021/04/04 01:58:02;;;;;;;7.60;6.23;;;7.60;55.70;;;;;;5040056;28;20209;-90
2021/04/04 02:00:28;;;;;;;10.00;6.57;;;7.60;55.90;;;;;;5040942;28;20238;-90
2021/04/04 02:02:54;;;;;;;6.50;5.80;;;7.50;55.00;;;;;;5041140;28;20184;-90
2021/04/04 02:05:23;;;;;;;6.83;5.27;;;7.40;56.10;;;;;;5040542;28;20255;-91
2021/04/04 02:07:50;;;;;;;5.80;5.27;;;7.40;56.20;;;;;;5043178;28;20200;-90
2021/04/04 02:10:23;;;;;;;9.57;6.67;;;7.40;56.20;;;;;;5059988;28;20177;-90
2021/04/04 02:12:51;;;;;;;8.03;6.07;;;7.40;55.60;;;;;;5051739;28;20213;-91
2021/04/04 02:15:20;;;;;;;8.40;6.00;;;7.00;57.50;;;;;;5060307;28;20225;-91
2021/04/04 02:17:47;;;;;;;6.77;5.70;;;7.10;57.20;;;;;;5048994;28;20223;-90
2021/04/04 02:20:16;;;;;;;6.90;5.77;;;7.20;57.30;;;;;;5041113;28;20272;-91
2021/04/04 02:22:43;;;;;;;9.40;5.47;;;7.20;57.00;;;;;;5040865;28;20178;-90
2021/04/04 02:25:11;;;;;;;7.13;5.20;;;7.30;56.40;;;;;;5039676;28;20200;-91
2021/04/04 02:27:39;;;;;;;7.30;6.60;;;7.30;56.30;;;;;;5040295;28;20208;-90
2021/04/04 02:30:06;;;;;;;7.57;6.00;;;7.30;56.00;;;;;;5039038;28;20234;-91
2021/04/04 02:32:36;;;;;;;6.17;5.57;;;7.30;56.10;;;;;;5039340;28;20185;-90
2021/04/04 02:35:03;;;;;;;8.33;6.43;;;7.30;56.50;;;;;;5039228;28;20729;-91
2021/04/04 02:37:29;;;;;;;5.93;5.33;;;7.30;56.30;;;;;;5029695;28;20192;-91
2021/04/04 02:40:04;;;;;;;8.07;6.57;;;7.30;56.20;;;;;;5040246;28;20170;-90
2021/04/04 02:42:32;;;;;;;8.87;6.53;;;7.20;55.80;;;;;;5039275;28;20196;-90
2021/04/04 02:45:00;;;;;;;7.47;6.33;;;7.00;56.40;;;;;;5042163;28;20209;-91
2021/04/04 02:47:44;;;;;;;7.33;6.60;;;6.80;56.90;;;;;;5040440;28;20182;-90
2021/04/04 02:50:11;;;;;;;8.33;6.67;;;6.90;57.60;;;;;;5024157;28;20185;-90
2021/04/04 02:52:41;;;;;;;8.10;6.47;;;7.00;57.30;;;;;;5040260;28;20548;-90
2021/04/04 02:55:09;;;;;;;7.50;6.50;;;7.00;57.20;;;;;;5024209;28;20647;-91
2021/04/04 02:57:36;;;;;;;7.67;6.00;;;7.10;57.50;;;;;;5023865;28;20182;-91
2021/04/04 03:00:06;;;;;;;8.53;6.10;;;7.10;57.30;;;;;;5038963;28;20675;-91
2021/04/04 03:02:35;;;;;;;9.40;6.50;;;7.10;57.40;;;;;;5043958;28;20268;-90
2021/04/04 03:05:02;;;;;;;7.23;6.00;;;7.10;57.20;;;;;;5045523;28;20211;-91
2021/04/04 03:07:29;;;;;;;8.87;5.73;;;7.10;57.70;;;;;;5047229;28;20181;-90
2021/04/04 03:09:56;;;;;;;5.87;5.37;;;7.10;57.30;;;;;;5045073;28;20189;-91
2021/04/04 03:12:26;;;;;;;6.60;5.20;;;6.90;56.50;;;;;;5045113;28;20185;-91
2021/04/04 03:14:54;;;;;;;6.33;5.70;;;7.00;57.30;;;;;;5043471;28;20695;-91
2021/04/04 03:17:21;;;;;;;8.17;5.27;;;7.00;57.10;;;;;;5044421;28;20490;-90
2021/04/04 03:19:48;;;;;;;5.50;5.00;;;6.90;57.20;;;;;;5044573;28;20181;-90
2021/04/04 03:22:15;;;;;;;7.00;5.40;;;6.90;57.20;;;;;;5044776;28;20221;-90
2021/04/04 03:24:43;;;;;;;6.70;5.60;;;6.90;56.90;;;;;;5044333;28;20201;-90
2021/04/04 03:27:09;;;;;;;9.90;5.37;;;6.90;57.40;;;;;;5044227;28;20517;-90
2021/04/04 03:29:35;;;;;;;6.57;5.43;;;6.90;57.30;;;;;;5043502;28;20181;-90
2021/04/04 03:32:02;;;;;;;7.57;5.33;;;6.90;57.40;;;;;;5026708;28;20275;-91
2021/04/04 03:34:29;;;;;;;6.30;5.67;;;6.90;56.90;;;;;;5026186;28;20213;-91
2021/04/04 03:36:57;;;;;;;8.30;6.10;;;6.80;57.20;;;;;;5043440;28;20193;-91
2021/04/04 03:39:25;;;;;;;7.17;6.33;;;6.70;57.80;;;;;;5044436;28;20181;-91
2021/04/04 03:41:53;;;;;;;6.53;5.17;;;6.70;58.00;;;;;;5042861;28;20203;-90
2021/04/04 03:44:24;;;;;;;7.20;5.90;;;6.70;58.10;;;;;;5043442;28;20227;-90
2021/04/04 03:46:51;;;;;;;8.80;5.40;;;6.80;58.20;;;;;;5043802;28;20295;-91
2021/04/04 03:49:20;;;;;;;6.60;5.90;;;6.70;58.10;;;;;;5043964;28;20177;-91
2021/04/04 03:51:46;;;;;;;6.37;5.63;;;6.70;58.40;;;;;;5043495;28;20192;-90
2021/04/04 03:54:15;;;;;;;7.57;5.53;;;6.70;58.20;;;;;;5042762;28;20260;-90
2021/04/04 03:56:46;;;;;;;6.70;5.87;;;6.80;57.80;;;;;;5026394;28;20213;-91
2021/04/04 03:59:13;;;;;;;6.60;5.90;;;6.80;57.70;;;;;;5044643;28;20179;-90
2021/04/04 04:01:49;;;;;;;6.50;5.40;;;6.80;57.90;;;;;;5044596;28;20177;-91
2021/04/04 04:04:16;;;;;;;7.23;5.67;;;6.80;57.50;;;;;;5042791;28;20310;-90
2021/04/04 04:06:46;;;;;;;9.70;5.70;;;6.80;57.40;;;;;;5044176;28;20204;-90
2021/04/04 04:09:18;;;;;;;8.23;6.23;;;6.70;57.90;;;;;;5042206;28;20204;-90
2021/04/04 04:11:46;;;;;;;9.57;6.73;;;6.70;58.10;;;;;;5042492;28;20191;-90
2021/04/04 04:14:16;;;;;;;7.17;6.00;;;6.60;58.50;;;;;;5042519;28;20200;-90
2021/04/04 04:16:43;;;;;;;7.10;5.93;;;6.50;59.20;;;;;;5039759;28;20221;-90
2021/04/04 04:19:10;;;;;;;7.40;6.60;;;6.50;58.80;;;;;;5043098;28;20284;-90
2021/04/04 04:21:38;;;;;;;8.07;6.53;;;6.60;58.50;;;;;;5041273;28;20602;-90
2021/04/04 04:24:08;;;;;;;6.93;6.17;;;6.50;58.40;;;;;;5043478;28;20255;-90
2021/04/04 04:26:35;;;;;;;8.37;6.20;;;6.50;58.80;;;;;;5043640;28;20184;-90
2021/04/04 04:29:02;;;;;;;7.13;5.80;;;6.50;58.90;;;;;;5051550;28;20188;-90
2021/04/04 04:31:33;;;;;;;9.97;6.73;;;6.50;58.60;;;;;;5056878;28;20182;-90
2021/04/04 04:34:01;;;;;;;8.03;6.00;;;6.50;58.20;;;;;;5037436;28;20188;-90
2021/04/04 04:36:30;;;;;;;9.17;6.37;;;6.50;58.10;;;;;;5058576;28;20208;-91
2021/04/04 04:38:57;;;;;;;7.33;6.10;;;6.50;57.80;;;;;;5045960;28;20208;-90
2021/04/04 04:41:23;;;;;;;8.53;6.30;;;6.30;58.10;;;;;;5044387;28;20184;-90
2021/04/04 04:43:59;;;;;;;7.10;5.83;;;5.70;60.10;;;;;;5044353;28;20258;-90
2021/04/04 04:46:25;;;;;;;6.90;5.50;;;5.80;60.20;;;;;;5048424;28;20176;-90
2021/04/04 04:48:52;;;;;;;7.33;6.07;;;5.80;59.80;;;;;;5056536;28;20253;-90
2021/04/04 04:51:22;;;;;;;6.90;5.67;;;5.90;60.10;;;;;;5036229;28;20185;-90
2021/04/04 04:53:49;;;;;;;8.87;5.77;;;6.00;59.80;;;;;;5039193;28;20177;-90
2021/04/04 04:56:16;;;;;;;7.73;6.00;;;6.10;59.70;;;;;;5038161;28;20223;-90
2021/04/04 04:58:43;;;;;;;7.07;5.50;;;6.10;59.50;;;;;;5020869;28;20203;-90
2021/04/04 05:01:13;;;;;;;6.40;5.33;;;6.20;59.10;;;;;;5020373;28;20686;-89
2021/04/04 05:03:38;;;;;;;7.07;5.93;;;6.20;59.00;;;;;;5007721;28;20184;-90
2021/04/04 05:06:09;;;;;;;6.83;5.07;;;6.20;58.80;;;;;;5046384;28;20620;-90
2021/04/04 05:08:38;;;;;;;6.93;5.80;;;6.30;59.50;;;;;;5020415;28;20204;-90
2021/04/04 05:11:11;;;;;;;7.83;5.97;;;6.20;58.80;;;;;;5038256;28;20181;-91
2021/04/04 05:13:41;;;;;;;8.03;5.57;;;6.30;58.40;;;;;;5038549;28;20634;-91
2021/04/04 05:16:14;;;;;;;6.80;5.60;;;6.30;58.90;;;;;;5036749;28;20209;-90
2021/04/04 05:18:47;;;;;;;6.13;5.27;;;6.20;59.10;;;;;;5036157;28;20276;-90
2021/04/04 05:21:17;;;;;;;7.43;5.20;;;6.20;58.80;;;;;;5039451;28;20177;-90
2021/04/04 05:23:43;;;;;;;8.50;5.60;;;6.30;58.70;;;;;;5042378;28;20208;-91
2021/04/04 05:26:09;;;;;;;7.03;5.50;;;6.30;58.70;;;;;;5040840;28;20209;-91
2021/04/04 05:28:35;;;;;;;6.73;5.87;;;6.30;58.50;;;;;;5041104;28;20181;-90
2021/04/04 05:31:02;;;;;;;7.03;5.00;;;6.10;58.60;;;;;;5040796;28;20322;-91
2021/04/04 05:33:29;;;;;;;6.80;5.33;;;5.90;58.80;;;;;;5040805;28;20184;-90
2021/04/04 05:35:55;;;;;;;8.10;6.03;;;5.70;60.70;;;;;;5041458;28;20252;-89
2021/04/04 05:38:20;;;;;;;6.43;5.57;;;5.80;60.80;;;;;;5024756;28;20208;-89
2021/04/04 05:40:47;;;;;;;7.00;5.77;;;5.80;60.60;;;;;;5042481;28;20208;-89
2021/04/04 05:43:14;;;;;;;6.23;5.47;;;5.70;60.50;;;;;;5041022;28;20196;-90
2021/04/04 05:45:46;;;;;;;7.20;5.50;;;5.80;61.00;;;;;;5038738;28;20201;-91
2021/04/04 05:48:40;;;;;;;6.60;6.00;;;5.90;60.60;;;;;;5041496;28;20185;-91
2021/04/04 05:51:40;;;;;;;6.67;5.03;;;5.90;60.70;;;;;;5038234;28;20235;-90
2021/04/04 05:54:51;;;;;;;6.43;5.50;;;6.00;60.70;;;;;;5039986;28;20258;-91
2021/04/04 05:57:34;;;;;;;8.20;5.30;;;6.00;60.00;;;;;;5017354;28;20193;-91
2021/04/04 06:00:08;;;;;;;6.90;5.60;;;6.10;60.70;;;;;;5036466;28;20214;-89
2021/04/04 06:03:02;;;;;;;6.17;4.90;;;6.10;60.20;;;;;;5036363;28;20208;-88
2021/04/04 06:05:58;;;;;;;8.37;5.30;;;6.20;60.00;;;;;;5052839;28;20249;-89
2021/04/04 06:09:01;;;;;;;5.40;4.77;;;6.30;59.90;;;;;;5058842;28;20166;-89
2021/04/04 06:11:52;;;;;;;5.73;4.93;;;6.30;59.50;;;;;;5073173;28;20200;-88
2021/04/04 06:14:53;;;;;;;7.23;4.80;;;6.10;60.20;;;;;;5040498;28;20225;-88
2021/04/04 06:17:36;;;;;;;7.23;5.10;;;6.20;60.50;;;;;;5040507;28;20230;-90
2021/04/04 06:20:28;;;;;;;5.80;5.13;;;6.00;61.00;;;;;;5040929;28;20158;-90
2021/04/04 06:23:20;;;;;;;7.80;6.03;;;6.00;61.70;;;;;;5040961;28;20158;-91
2021/04/04 06:26:17;;;;;;;7.13;6.43;;;6.20;61.60;;;;;;5039860;28;20193;-91
2021/04/04 06:29:01;;;;;;;6.90;5.63;;;6.30;59.90;;;;;;5017880;28;20253;-91
2021/04/04 06:31:41;;;;;;;7.00;6.30;;;6.40;58.70;;;;;;5034503;28;20185;-90
2021/04/04 06:34:16;;;;;;;8.53;6.10;;;6.50;57.80;;;;;;5020231;28;20659;-90
2021/04/04 06:36:51;;;;;;;10.17;6.70;;;6.40;58.10;;;;;;5020405;28;20308;-90
2021/04/04 06:39:42;;;;;;;9.70;6.13;;;6.40;58.00;;;;;;5020720;28;20608;-90
2021/04/04 06:42:25;;;;;;;10.03;6.13;;;6.40;58.30;;;;;;5021708;28;20181;-90
2021/04/04 06:45:39;;;;;;;8.13;6.23;;;6.30;59.00;;;;;;5021112;28;20212;-90
2021/04/04 06:48:45;;;;;;;8.97;5.53;;;6.30;59.00;;;;;;4990088;28;20204;-89
2021/04/04 06:51:37;;;;;;;7.87;5.80;;;6.30;59.20;;;;;;5060248;28;20157;-90
2021/04/04 06:54:10;;;;;;;7.93;5.47;;;6.30;59.40;;;;;;5051552;28;20238;-90
2021/04/04 06:56:52;;;;;;;8.87;6.30;;;6.30;59.50;;;;;;5060539;28;20201;-90
2021/04/04 06:59:54;;;;;;;7.63;6.10;;;6.50;59.70;;;;;;5043996;28;20181;-88
2021/04/04 07:02:23;;;;;;;9.77;5.73;;;6.50;59.10;;;;;;5040797;28;20541;-89
2021/04/04 07:05:01;;;;;;;6.40;5.50;;;6.70;59.40;;;;;;5040386;28;20267;-89
2021/04/04 07:07:47;;;;;;;9.20;5.87;;;6.70;57.70;;;;;;5042729;28;20188;-89
2021/04/04 07:10:41;;;;;;;7.13;5.63;;;6.70;58.30;;;;;;5010193;28;20193;-90
2021/04/04 07:13:19;;;;;;;9.37;6.20;;;6.70;58.70;;;;;;5022512;28;20272;-90
2021/04/04 07:15:50;;;;;;;6.83;5.33;;;6.90;58.50;;;;;;5040697;28;20274;-89
2021/04/04 07:18:44;;;;;;;8.50;5.93;;;7.10;58.10;;;;;;5035175;28;20638;-90
2021/04/04 07:21:47;;;;;;;8.77;5.30;;;7.10;57.20;;;;;;5041347;28;20256;-89
2021/04/04 07:24:50;;;;;;;8.00;5.63;;;7.00;57.90;;;;;;5041902;28;20187;-90
2021/04/04 07:27:27;;;;;;;12.53;5.63;;;7.20;57.70;;;;;;5039128;28;20185;-89
2021/04/04 07:30:30;;;;;;;8.00;5.97;;;7.20;57.50;;;;;;5040440;28;20279;-88
2021/04/04 07:33:31;;;;;;;7.43;5.93;;;7.30;57.30;;;;;;5020709;28;20265;-89
2021/04/04 07:36:02;;;;;;;11.80;7.00;;;7.50;56.80;;;;;;5034886;28;20230;-88
2021/04/04 07:38:49;;;;;;;8.60;6.20;;;7.40;57.10;;;;;;5059805;28;20190;-89
2021/04/04 07:41:32;;;;;;;10.03;6.20;;;7.50;57.00;;;;;;5046654;28;20191;-89
2021/04/04 07:44:13;;;;;;;8.17;6.07;;;7.70;57.20;;;;;;5037828;28;20669;-89
2021/04/04 07:47:03;;;;;;;8.00;5.53;;;7.70;55.40;;;;;;5032661;28;20219;-90
2021/04/04 07:49:44;;;;;;;12.37;6.90;;;7.70;55.60;;;;;;5037383;28;20181;-90
2021/04/04 07:52:24;;;;;;;14.00;7.27;;;7.80;55.40;;;;;;5032042;28;20192;-90
2021/04/04 07:55:19;;;;;;;9.83;6.47;;;7.70;55.80;;;;;;5020970;28;20239;-90
2021/04/04 07:58:07;;;;;;;11.50;6.77;;;7.70;56.00;;;;;;5043609;28;20290;-90
2021/04/04 08:00:34;;;;;;;12.80;6.13;;;7.70;55.60;;;;;;5030263;28;20227;-90
2021/04/04 08:03:06;;;;;;;12.50;7.37;;;7.70;55.40;;;;;;5038604;28;20543;-89
2021/04/04 08:05:36;;;;;;;9.13;5.97;;;7.80;55.20;;;;;;5040180;28;20197;-90
2021/04/04 08:08:08;;;;;;;11.53;6.03;;;7.90;54.70;;;;;;5039820;28;20942;-91
2021/04/04 08:10:40;;;;;;;10.33;6.13;;;8.10;54.60;;;;;;5041177;28;20268;-90
2021/04/04 08:13:15;;;;;;;8.17;5.97;;;8.20;55.00;;;;;;5034944;28;20172;-92
2021/04/04 08:15:47;;;;;;;7.00;5.60;;;8.30;53.30;;;;;;5040874;28;20208;-89
2021/04/04 08:18:13;;;;;;;9.37;6.10;;;8.50;53.70;;;;;;5044013;28;20235;-89
2021/04/04 08:20:48;;;;;;;12.80;6.27;;;8.50;52.80;;;;;;5038502;28;20667;-89
2021/04/04 08:23:41;;;;;;;10.50;5.90;;;8.60;52.70;;;;;;5026438;28;20208;-90
2021/04/04 08:26:17;;;;;;;7.47;5.80;;;8.70;52.90;;;;;;5036666;28;20212;-90
2021/04/04 08:28:59;;;;;;;8.27;6.27;;;8.90;52.50;;;;;;5031433;28;20197;-89
2021/04/04 08:31:32;;;;;;;8.13;6.23;;;9.10;51.80;;;;;;5035499;28;20211;-89
2021/04/04 08:34:19;;;;;;;8.43;5.70;;;9.20;51.30;;;;;;5019284;28;20618;-89
2021/04/04 08:36:58;;;;;;;9.73;5.73;;;9.10;51.80;;;;;;5031533;28;20201;-89
2021/04/04 08:39:30;;;;;;;10.27;5.73;;;9.20;51.00;;;;;;5036679;28;20192;-90
2021/04/04 08:41:59;;;;;;;10.23;6.70;;;9.20;51.00;;;;;;5029828;28;20177;-90
2021/04/04 08:44:33;;;;;;;11.90;6.43;;;9.10;51.10;;;;;;5030934;28;20264;-91
2021/04/04 08:47:10;;;;;;;12.67;7.47;;;9.30;51.50;;;;;;5036470;28;20214;-90
2021/04/04 08:49:36;;;;;;;11.87;7.90;;;9.40;51.00;;;;;;5037133;28;20168;-89
2021/04/04 08:52:03;;;;;;;9.03;6.07;;;9.60;50.60;;;;;;5039117;28;20187;-90
2021/04/04 08:54:31;;;;;;;11.63;6.03;;;9.80;50.00;;;;;;5035814;28;20211;-89
2021/04/04 08:56:57;;;;;;;11.47;6.70;;;9.80;49.60;;;;;;5014158;28;20579;-91
2021/04/04 08:59:28;;;;;;;14.83;7.13;;;10.00;49.30;;;;;;5032373;28;20196;-91
2021/04/04 09:02:00;;;;;;;12.17;7.07;;;10.20;48.70;;;;;;5022735;28;20193;-90
2021/04/04 09:04:27;;;;;;;11.43;6.40;;;10.30;47.80;;;;;;5032610;28;20622;-90
2021/04/04 09:07:00;;;;;;;10.30;6.73;;;10.40;48.00;;;;;;5036491;28;20267;-89
2021/04/04 09:09:31;;;;;;;8.10;5.73;;;10.60;47.10;;;;;;5037717;28;20276;-90
2021/04/04 09:12:00;;;;;;;10.20;6.87;;;10.70;47.40;;;;;;5029294;28;20194;-89
2021/04/04 09:14:34;;;;;;;12.47;7.30;;;11.00;46.70;;;;;;5033782;28;20330;-89
2021/04/04 09:17:00;;;;;;;7.70;6.10;;;11.00;46.20;;;;;;5036291;28;20553;-89
2021/04/04 09:19:38;;;;;;;10.03;6.83;;;11.10;46.80;;;;;;5036740;28;20236;-89
2021/04/04 09:22:10;;;;;;;9.87;6.37;;;11.20;45.90;;;;;;5032699;28;20189;-90
2021/04/04 09:24:43;;;;;;;9.70;6.90;;;11.40;45.20;;;;;;5034788;28;20219;-89
2021/04/04 09:27:15;;;;;;;10.23;7.17;;;11.50;45.00;;;;;;5037519;28;20242;-89
2021/04/04 09:29:43;;;;;;;12.33;6.53;;;11.50;44.80;;;;;;5033377;28;20197;-90
2021/04/04 09:32:45;;;;;;;11.80;6.83;;;11.60;44.80;;;;;;5038163;28;20197;-91
2021/04/04 09:35:19;;;;;;;11.73;6.37;;;11.70;44.40;;;;;;5054285;28;20234;-89
2021/04/04 09:37:46;;;;;;;10.53;6.30;;;11.80;43.40;;;;;;5054899;28;20172;-90
2021/04/04 09:40:14;;;;;;;9.50;6.37;;;12.10;43.10;;;;;;5039569;28;20205;-90
2021/04/04 09:42:40;;;;;;;8.27;6.00;;;12.10;42.80;;;;;;5048526;28;20181;-90
2021/04/04 09:45:32;;;;;;;9.53;6.40;;;12.30;41.50;;;;;;5055579;28;20288;-89
2021/04/04 09:47:58;;;;;;;10.67;6.77;;;12.30;42.40;;;;;;5045976;28;20536;-89
2021/04/04 09:50:24;;;;;;;10.00;7.03;;;12.50;42.90;;;;;;5033847;28;20217;-90
2021/04/04 09:52:52;;;;;;;12.60;6.80;;;12.60;41.80;;;;;;5030706;28;20228;-91
2021/04/04 09:55:22;;;;;;;7.50;6.70;;;12.70;41.50;;;;;;5031084;28;20240;-88
2021/04/04 09:57:51;;;;;;;8.03;6.13;;;12.70;41.10;;;;;;5035429;28;20194;-89
2021/04/04 10:00:27;;;;;;;9.03;5.70;;;12.80;41.20;;;;;;5037615;28;20189;-89
2021/04/04 10:02:56;;;;;;;9.50;6.20;;;13.10;40.50;;;;;;5035981;28;20187;-90
2021/04/04 10:05:33;;;;;;;9.90;7.13;;;13.40;40.60;;;;;;5033603;28;20265;-90
2021/04/04 10:08:23;;;;;;;10.13;6.27;;;13.60;39.10;;;;;;5037411;28;20669;-90
2021/04/04 10:10:53;;;;;;;15.83;7.23;;;13.80;38.30;;;;;;5016284;28;20192;-89
2021/04/04 10:13:31;;;;;;;11.10;6.17;;;13.80;38.90;;;;;;5030751;28;20214;-89
2021/04/04 10:15:57;;;;;;;7.30;5.90;;;13.80;37.90;;;;;;5040566;28;20290;-89
2021/04/04 10:18:26;;;;;;;10.73;6.27;;;14.00;37.50;;;;;;5039272;28;20195;-88
2021/04/04 10:20:54;;;;;;;7.37;5.97;;;14.40;36.90;;;;;;5036947;28;20180;-89
2021/04/04 10:23:33;;;;;;;13.73;6.20;;;14.40;36.60;;;;;;5039373;28;20283;-89
2021/04/04 10:26:05;;;;;;;6.20;5.50;;;14.50;36.80;;;;;;5037812;28;20244;-89
2021/04/04 10:28:48;;;;;;;7.20;5.87;;;14.60;35.70;;;;;;5028610;28;20184;-89
2021/04/04 10:31:15;;;;;;;10.20;6.30;;;14.60;35.80;;;;;;5025568;28;20193;-88
2021/04/04 10:33:41;;;;;;;9.30;6.30;;;14.60;35.10;;;;;;5038177;28;20192;-88
2021/04/04 10:36:17;;;;;;;7.50;5.53;;;14.60;36.10;;;;;;5038010;28;20726;-88
2021/04/04 10:38:44;;;;;;;6.80;6.07;;;14.40;35.90;;;;;;5038793;28;20252;-88
2021/04/04 10:41:10;;;;;;;8.13;6.57;;;14.70;36.20;;;;;;5040989;28;20196;-89
2021/04/04 10:43:41;;;;;;;6.67;5.57;;;15.00;35.40;;;;;;5040679;28;20197;-87
2021/04/04 10:46:13;;;;;;;8.10;5.70;;;15.30;34.50;;;;;;5039994;28;20211;-89
2021/04/04 10:48:44;;;;;;;8.80;7.90;;;15.60;34.00;;;;;;5038888;28;20245;-88
2021/04/04 10:51:12;;;;;;;10.57;9.57;;;15.60;34.10;;;;;;5043304;28;20193;-88
2021/04/04 10:53:39;;;;;;;9.67;8.13;;;16.00;33.30;;;;;;5043422;28;20187;-89
2021/04/04 10:56:06;;;;;;;9.87;8.53;;;16.20;33.10;;;;;;5030944;28;20904;-89
2021/04/04 10:58:32;;;;;;;10.07;7.40;;;16.10;32.90;;;;;;5046329;28;20215;-88
2021/04/04 11:01:00;;;;;;;6.07;5.50;;;16.10;32.60;;;;;;5043508;28;20174;-89
2021/04/04 11:03:27;;;;;;;9.87;6.53;;;15.90;32.60;;;;;;5042307;28;20184;-88
2021/04/04 11:05:54;;;;;;;9.30;8.20;;;16.00;33.50;;;;;;5042626;28;20257;-89
2021/04/04 11:08:20;;;;;;;10.67;7.90;;;16.20;32.50;;;;;;5047787;28;20198;-89
2021/04/04 11:10:47;;;;;;;8.20;5.97;;;16.30;32.90;;;;;;5043036;28;20196;-88
2021/04/04 11:13:14;;;;;;;8.53;6.80;;;16.30;32.80;;;;;;5043068;28;20201;-88
2021/04/04 11:15:42;;;;;;;7.27;6.57;;;16.80;32.00;;;;;;5025890;28;20267;-88
2021/04/04 11:18:14;;;;;;;9.00;6.73;;;17.10;31.10;;;;;;5046033;28;20748;-89
2021/04/04 11:20:46;;;;;;;8.33;7.00;;;17.30;30.50;;;;;;5044952;28;20185;-88
2021/04/04 11:23:18;;;;;;;6.90;6.07;;;17.00;31.10;;;;;;5035538;28;20192;-88
2021/04/04 11:25:44;;;;;;;8.80;6.00;;;16.90;31.30;;;;;;5042004;28;20209;-89
2021/04/04 11:28:18;;;;;;;6.63;5.83;;;16.60;32.40;;;;;;5040256;28;20193;-89
2021/04/04 11:30:45;;;;;;;7.70;5.70;;;17.00;31.60;;;;;;5041206;28;20172;-89
2021/04/04 11:33:20;;;;;;;9.50;6.03;;;16.50;32.40;;;;;;5038985;28;20198;-89
2021/04/04 11:36:03;;;;;;;7.07;5.47;;;16.20;31.50;;;;;;5040080;28;20223;-89
2021/04/04 11:38:33;;;;;;;7.43;6.73;;;16.40;30.00;;;;;;5040141;28;20194;-89
2021/04/04 11:41:11;;;;;;;6.97;5.93;;;16.20;31.00;;;;;;5041493;28;20627;-89
2021/04/04 11:43:37;;;;;;;8.07;5.50;;;15.80;31.10;;;;;;5041293;28;20213;-88
2021/04/04 11:46:03;;;;;;;9.37;5.60;;;15.60;33.00;;;;;;5040579;28;20716;-88
2021/04/04 11:48:33;;;;;;;9.47;6.20;;;15.90;32.60;;;;;;5036248;28;20186;-88
2021/04/04 11:51:29;;;;;;;8.07;5.73;;;16.20;32.40;;;;;;5035803;28;20169;-89
2021/04/04 11:53:54;;;;;;;8.17;5.90;;;16.20;31.80;;;;;;5032731;28;20196;-89
2021/04/04 11:56:45;;;;;;;6.43;5.83;;;16.20;32.00;;;;;;5039834;28;20282;-89
2021/04/04 11:59:12;;;;;;;8.60;6.30;;;16.10;32.10;;;;;;5038747;28;20273;-89
2021/04/04 12:01:37;;;;;;;7.07;6.13;;;16.50;32.60;;;;;;5037897;28;20196;-89
2021/04/04 12:04:22;;;;;;;7.63;5.67;;;17.30;31.50;;;;;;5038910;28;20169;-90
2021/04/04 12:07:02;;;;;;;8.67;6.73;;;17.70;31.10;;;;;;5038223;28;20220;-89
2021/04/04 12:09:29;;;;;;;6.83;5.77;;;17.70;30.20;;;;;;5041006;28;20272;-89
2021/04/04 12:11:55;;;;;;;7.17;6.17;;;17.80;30.30;;;;;;5056339;28;20183;-90
2021/04/04 12:14:21;;;;;;;7.53;6.80;;;18.50;29.00;;;;;;5056919;28;20231;-89
2021/04/04 12:16:48;;;;;;;6.93;6.20;;;18.40;27.80;;;;;;5056944;28;20694;-90
2021/04/04 12:19:24;;;;;;;9.30;6.77;;;18.50;27.80;;;;;;5038507;28;20234;-89
2021/04/04 12:21:53;;;;;;;8.30;6.57;;;18.90;28.60;;;;;;5056277;28;20685;-90
2021/04/04 12:24:19;;;;;;;6.17;5.47;;;19.10;28.50;;;;;;5044004;28;20776;-89
2021/04/04 12:26:45;;;;;;;5.30;4.80;;;19.30;27.70;;;;;;5036005;28;20179;-89
2021/04/04 12:29:11;;;;;;;8.32;6.72;;;19.40;27.50;;;;;;5035767;28;20678;-89
2021/04/04 12:31:41;;;;;;;9.45;5.95;;;19.60;27.50;;;;;;5033517;28;20187;-89
2021/04/04 12:34:07;;;;;;;7.33;6.33;;;19.40;27.90;;;;;;5035783;28;20192;-89
2021/04/04 12:36:45;;;;;;;12.00;6.20;;;18.70;27.80;;;;;;5031907;28;20208;-89
2021/04/04 12:39:13;;;;;;;7.80;6.23;;;18.20;28.30;;;;;;5016700;28;20174;-89
2021/04/04 12:41:39;;;;;;;6.73;5.90;;;18.60;28.00;;;;;;5035665;28;20185;-89
2021/04/04 12:44:06;;;;;;;7.83;6.40;;;18.50;27.40;;;;;;5036726;28;20702;-90
2021/04/04 12:46:32;;;;;;;13.98;11.00;;;19.40;27.70;;;;;;5034722;28;20611;-89
2021/04/04 12:48:58;;;;;;;9.23;5.97;;;19.70;27.00;;;;;;5036156;28;20184;-90
2021/04/04 12:51:24;;;;;;;7.82;6.32;;;19.60;26.80;;;;;;5034490;28;20196;-90
2021/04/04 12:53:51;;;;;;;10.50;6.27;;;19.90;26.70;;;;;;5036790;28;20195;-89
2021/04/04 12:56:38;;;;;;;8.50;5.80;;;19.20;26.30;;;;;;5037183;28;20210;-90
2021/04/04 12:59:04;;;;;;;6.20;5.30;;;18.80;27.00;;;;;;5021490;28;20185;-87
2021/04/04 13:01:30;;;;;;;10.07;8.90;;;18.60;26.90;;;;;;5039547;28;20195;-90
2021/04/04 13:03:56;;;;;;;10.27;9.00;;;18.80;26.60;;;;;;5038891;28;20177;-90
2021/04/04 13:06:22;;;;;;;6.00;5.37;;;19.20;26.20;;;;;;5042184;28;20254;-88
2021/04/04 13:08:48;;;;;;;7.13;6.47;;;19.70;25.40;;;;;;5040719;28;20186;-88
2021/04/04 13:11:16;;;;;;;10.67;6.37;;;19.50;26.00;;;;;;5042997;28;20284;-89
2021/04/04 13:13:47;;;;;;;6.20;5.30;;;19.50;26.10;;;;;;5057459;28;20159;-90
2021/04/04 13:16:15;;;;;;;6.53;5.85;;;19.50;26.30;;;;;;5057337;28;20211;-90
2021/04/04 13:18:46;;;;;;;8.43;6.53;;;20.00;25.70;;;;;;5043322;28;20180;-89
2021/04/04 13:21:21;;;;;;;7.43;5.55;;;20.00;25.70;;;;;;5042391;28;20191;-89
2021/04/04 13:23:49;;;;;;;7.80;5.97;;;20.20;25.40;;;;;;5042028;28;20182;-89
2021/04/04 13:26:17;;;;;;;7.20;6.53;;;20.20;25.50;;;;;;5050834;28;20238;-90
2021/04/04 13:28:43;;;;;;;9.60;6.43;;;20.20;25.10;;;;;;5056596;28;20246;-88
2021/04/04 13:31:13;;;;;;;7.18;6.47;;;20.30;25.10;;;;;;5044110;28;20223;-91
2021/04/04 13:33:40;;;;;;;8.25;6.45;;;20.20;25.50;;;;;;5039032;28;20202;-90